createdAt,value
2019-06-26T00:01:40.833Z,81.70
2019-06-26T00:04:11.715Z,81.50
2019-06-26T00:06:44.305Z,81.70
2019-06-26T00:09:15.599Z,81.70
2019-06-26T00:11:46.588Z,81.60
2019-06-26T00:14:17.475Z,81.00
2019-06-26T00:16:48.428Z,81.10
2019-06-26T00:19:19.504Z,81.30
2019-06-26T00:21:50.371Z,81.50
2019-06-26T00:24:21.487Z,80.90
2019-06-26T00:26:52.435Z,81.10
2019-06-26T00:29:23.572Z,81.30
2019-06-26T00:31:54.581Z,80.60
2019-06-26T00:34:25.559Z,80.00
2019-06-26T00:36:56.682Z,79.10
2019-06-26T00:39:27.741Z,79.20
2019-06-26T00:41:58.987Z,79.60
2019-06-26T00:44:30.187Z,79.60
2019-06-26T00:47:01.279Z,79.50
2019-06-26T00:49:32.664Z,78.70
2019-06-26T00:52:03.565Z,79.20
2019-06-26T00:54:34.854Z,78.90
2019-06-26T00:57:05.890Z,78.70
2019-06-26T00:59:36.833Z,78.80
2019-06-26T01:02:08.078Z,78.90
2019-06-26T01:04:40.542Z,77.90
2019-06-26T01:07:11.595Z,78.10
2019-06-26T01:09:43.429Z,78.40
2019-06-26T01:12:14.801Z,77.90
2019-06-26T01:14:45.993Z,78.00
2019-06-26T01:17:16.946Z,77.70
2019-06-26T01:19:48.127Z,77.50
2019-06-26T01:22:19.240Z,77.10
2019-06-26T01:24:50.097Z,77.30
2019-06-26T01:27:21.122Z,76.90
2019-06-26T01:29:57.118Z,76.00
2019-06-26T01:32:28.096Z,75.70
2019-06-26T01:34:59.128Z,76.10
2019-06-26T01:37:30.925Z,75.60
2019-06-26T01:40:02.811Z,75.00
2019-06-26T01:42:33.766Z,75.20
2019-06-26T01:45:05.801Z,74.80
2019-06-26T01:47:36.898Z,74.90
2019-06-26T01:50:09.163Z,74.50
2019-06-26T01:52:41.378Z,74.00
2019-06-26T01:55:14.500Z,74.60
2019-06-26T01:57:45.827Z,74.40
2019-06-26T02:00:17.954Z,74.50
2019-06-26T02:02:49.155Z,75.00
2019-06-26T02:05:20.313Z,73.30
2019-06-26T02:07:59.025Z,73.30
2019-06-26T02:10:28.994Z,74.00
2019-06-26T02:13:00.980Z,73.10
2019-06-26T02:15:37.137Z,72.10
2019-06-26T02:18:17.851Z,71.40
2019-06-26T02:20:52.742Z,70.80
2019-06-26T02:23:26.773Z,71.70
2019-06-26T02:26:09.471Z,71.10
2019-06-26T02:28:44.514Z,70.80
2019-06-26T02:31:22.118Z,70.40
2019-06-26T02:33:55.383Z,70.80
2019-06-26T02:36:26.590Z,68.50
2019-06-26T02:38:57.849Z,69.10
2019-06-26T02:41:37.333Z,69.60
2019-06-26T02:44:21.062Z,69.80
2019-06-26T02:46:52.580Z,68.70
2019-06-26T02:52:03.075Z,69.20
2019-06-26T02:54:34.150Z,68.70
2019-06-26T02:57:05.093Z,68.70
2019-06-26T02:59:36.034Z,68.70
2019-06-26T03:02:07.271Z,67.70
2019-06-26T03:04:38.360Z,68.40
2019-06-26T03:07:09.450Z,68.00
2019-06-26T03:09:40.535Z,68.70
2019-06-26T03:12:14.315Z,67.10
2019-06-26T03:15:08.310Z,67.30
2019-06-26T03:17:30.434Z,67.90
2019-06-26T03:20:03.705Z,67.10
2019-06-26T03:22:34.271Z,67.30
2019-06-26T03:25:06.591Z,67.20
2019-06-26T03:27:37.571Z,66.10
2019-06-26T03:30:08.847Z,65.70
2019-06-26T03:32:40.108Z,65.80
2019-06-26T03:35:11.365Z,66.00
2019-06-26T03:37:42.450Z,64.20
2019-06-26T03:40:13.718Z,64.90
2019-06-26T03:42:44.847Z,63.20
2019-06-26T03:45:25.658Z,62.40
2019-06-26T03:47:48.628Z,63.00
2019-06-26T03:50:29.311Z,62.40
2019-06-26T03:53:21.161Z,62.50
2019-06-26T03:55:39.295Z,61.80
2019-06-26T03:58:10.514Z,62.10
2019-06-26T04:00:43.586Z,59.90
2019-06-26T04:03:14.905Z,61.60
2019-06-26T04:05:47.282Z,61.40
2019-06-26T04:08:39.169Z,61.50
2019-06-26T04:11:08.282Z,62.50
2019-06-26T04:13:38.134Z,59.70
2019-06-26T04:16:09.647Z,60.00
2019-06-26T04:18:40.832Z,61.90
2019-06-26T04:21:12.103Z,60.00
2019-06-26T04:23:43.548Z,60.70
2019-06-26T04:26:14.589Z,60.40
2019-06-26T04:28:45.640Z,57.80
2019-06-26T04:31:16.765Z,57.30
2019-06-26T04:33:48.049Z,57.00
2019-06-26T04:36:19.315Z,57.60
2019-06-26T04:38:50.366Z,56.40
2019-06-26T04:41:21.461Z,59.00
2019-06-26T04:43:52.441Z,59.20
2019-06-26T04:46:23.609Z,57.00
2019-06-26T04:48:54.693Z,58.30
2019-06-26T04:51:25.619Z,58.20
2019-06-26T04:53:56.620Z,57.30
2019-06-26T04:56:27.792Z,56.60
2019-06-26T04:58:58.839Z,57.50
2019-06-26T05:01:29.915Z,57.60
2019-06-26T05:04:01.380Z,56.90
2019-06-26T05:06:32.584Z,56.40
2019-06-26T05:09:03.660Z,56.60
2019-06-26T05:11:34.793Z,56.00
2019-06-26T05:14:06.115Z,57.30
2019-06-26T05:16:38.511Z,56.60
2019-06-26T05:19:10.374Z,56.50
2019-06-26T05:21:41.692Z,57.30
2019-06-26T05:24:12.938Z,57.80
2019-06-26T05:26:44.100Z,58.00
2019-06-26T05:29:15.273Z,59.40
2019-06-26T05:31:49.445Z,59.20
2019-06-26T05:34:20.437Z,59.40
2019-06-26T05:36:51.689Z,59.40
2019-06-26T05:39:22.807Z,58.50
2019-06-26T05:41:53.966Z,58.90
2019-06-26T05:44:25.082Z,60.20
2019-06-26T05:46:56.152Z,59.60
2019-06-26T05:49:27.364Z,60.20
2019-06-26T05:52:01.320Z,58.50
2019-06-26T05:54:32.527Z,58.90
2019-06-26T05:57:03.954Z,58.70
2019-06-26T05:59:35.170Z,59.00
2019-06-26T06:02:06.439Z,59.10
2019-06-26T06:04:37.555Z,57.50
2019-06-26T06:07:08.628Z,57.60
2019-06-26T06:09:42.486Z,56.80
2019-06-26T06:12:17.011Z,57.30
2019-06-26T06:14:53.412Z,55.30
2019-06-26T06:17:24.417Z,54.50
2019-06-26T06:20:01.294Z,54.90
2019-06-26T06:22:30.709Z,55.50
2019-06-26T06:25:02.322Z,55.60
2019-06-26T06:27:33.779Z,55.00
2019-06-26T06:30:05.757Z,54.80
2019-06-26T06:32:36.904Z,54.80
2019-06-26T06:35:09.259Z,55.20
2019-06-26T06:37:44.878Z,54.50
2019-06-26T06:40:16.170Z,55.10
2019-06-26T06:42:47.322Z,56.20
2019-06-26T06:45:18.437Z,54.90
2019-06-26T06:47:49.658Z,55.30
2019-06-26T06:50:20.744Z,54.30
2019-06-26T06:52:51.823Z,55.00
2019-06-26T06:55:22.763Z,54.50
2019-06-26T06:57:53.862Z,54.90
2019-06-26T07:00:25.074Z,53.20
2019-06-26T07:02:56.155Z,53.20
2019-06-26T07:05:27.243Z,51.60
2019-06-26T07:07:58.397Z,51.90
2019-06-26T07:10:29.447Z,52.70
2019-06-26T07:13:00.687Z,51.90
2019-06-26T07:15:31.916Z,53.10
2019-06-26T07:18:02.911Z,51.30
2019-06-26T07:20:33.896Z,53.80
2019-06-26T07:23:04.994Z,51.80
2019-06-26T07:25:36.829Z,52.10
2019-06-26T07:28:07.898Z,51.90
2019-06-26T07:30:39.068Z,53.00
2019-06-26T07:33:10.256Z,51.20
2019-06-26T07:35:41.239Z,51.90
2019-06-26T07:38:12.431Z,51.70
2019-06-26T07:40:43.500Z,51.60
2019-06-26T07:43:16.573Z,51.50
2019-06-26T07:45:47.291Z,51.20
2019-06-26T07:48:18.779Z,53.30
2019-06-26T07:50:50.157Z,52.80
2019-06-26T07:53:21.345Z,49.90
2019-06-26T07:55:52.616Z,50.10
2019-06-26T07:58:23.550Z,50.50
2019-06-26T08:00:54.751Z,51.80
2019-06-26T08:03:25.840Z,51.00
2019-06-26T08:05:56.883Z,51.20
2019-06-26T08:08:28.112Z,51.00
2019-06-26T08:10:59.289Z,51.50
2019-06-26T08:13:30.479Z,52.00
2019-06-26T08:16:01.493Z,51.60
2019-06-26T08:18:35.407Z,51.90
2019-06-26T08:21:12.728Z,51.20
2019-06-26T08:23:38.952Z,51.10
2019-06-26T08:26:09.967Z,51.30
2019-06-26T08:28:42.120Z,51.70
2019-06-26T08:31:13.185Z,50.90
2019-06-26T08:33:44.343Z,51.50
2019-06-26T08:36:15.379Z,52.70
2019-06-26T08:38:46.466Z,51.70
2019-06-26T08:41:17.520Z,49.70
2019-06-26T08:43:48.924Z,51.20
2019-06-26T08:46:19.871Z,50.20
2019-06-26T08:48:52.239Z,50.20
2019-06-26T08:51:23.841Z,50.60
2019-06-26T08:53:55.544Z,50.30
2019-06-26T08:56:26.683Z,50.80
2019-06-26T08:58:57.772Z,50.20
2019-06-26T09:01:28.886Z,51.20
2019-06-26T09:03:59.952Z,51.80
2019-06-26T09:06:31.046Z,52.50
2019-06-26T09:09:02.144Z,51.60
2019-06-26T09:11:33.259Z,51.40
2019-06-26T09:14:04.566Z,50.80
2019-06-26T09:16:35.666Z,51.80
2019-06-26T09:19:06.872Z,52.20
2019-06-26T09:21:37.840Z,52.30
2019-06-26T09:24:09.104Z,51.00
2019-06-26T09:26:40.509Z,51.90
2019-06-26T09:29:11.649Z,53.20
2019-06-26T09:31:43.133Z,52.70
2019-06-26T09:34:14.327Z,51.10
2019-06-26T09:36:46.074Z,52.60
2019-06-26T09:39:17.230Z,50.80
2019-06-26T09:41:48.295Z,51.00
2019-06-26T09:44:19.293Z,50.90
2019-06-26T09:46:51.087Z,51.60
2019-06-26T09:49:22.130Z,51.70
2019-06-26T09:51:53.336Z,50.90
2019-06-26T09:54:24.221Z,51.20
2019-06-26T09:56:55.125Z,52.50
2019-06-26T09:59:26.092Z,51.80
2019-06-26T10:01:57.094Z,51.30
2019-06-26T10:04:28.308Z,51.50
2019-06-26T10:06:59.411Z,52.10
2019-06-26T10:09:30.396Z,51.60
2019-06-26T10:12:01.709Z,51.70
2019-06-26T10:14:46.509Z,52.50
2019-06-26T10:19:36.282Z,51.80
2019-06-26T10:22:07.410Z,52.00
2019-06-26T10:24:38.410Z,52.00
2019-06-26T10:27:09.999Z,52.90
2019-06-26T10:29:41.070Z,52.30
2019-06-26T10:32:12.155Z,52.20
2019-06-26T10:34:43.392Z,52.10
2019-06-26T10:37:14.546Z,51.50
2019-06-26T10:39:45.766Z,52.70
2019-06-26T10:42:17.270Z,52.20
2019-06-26T10:44:48.323Z,52.50
2019-06-26T10:47:19.284Z,52.50
2019-06-26T10:49:50.261Z,52.20
2019-06-26T10:52:21.327Z,52.50
2019-06-26T10:54:52.342Z,52.40
2019-06-26T10:57:23.408Z,52.70
2019-06-26T10:59:55.880Z,52.60
2019-06-26T11:02:27.104Z,51.90
2019-06-26T11:04:58.371Z,52.40
2019-06-26T11:07:29.913Z,52.20
2019-06-26T11:10:01.440Z,52.60
2019-06-26T11:12:32.516Z,53.30
2019-06-26T11:15:03.728Z,53.80
2019-06-26T11:17:34.816Z,53.70
2019-06-26T11:20:08.205Z,52.60
2019-06-26T11:22:39.325Z,53.20
2019-06-26T11:25:10.604Z,54.40
2019-06-26T11:27:41.856Z,53.80
2019-06-26T11:30:13.470Z,54.30
2019-06-26T11:32:45.650Z,53.50
2019-06-26T11:35:18.257Z,53.00
2019-06-26T11:37:49.237Z,53.30
2019-06-26T11:40:20.434Z,54.70
2019-06-26T11:42:51.513Z,54.90
2019-06-26T11:45:22.697Z,54.00
2019-06-26T11:47:53.575Z,54.00
2019-06-26T11:50:24.581Z,53.60
2019-06-26T11:52:55.645Z,54.00
2019-06-26T11:55:26.697Z,54.00
2019-06-26T11:57:57.945Z,53.90
2019-06-26T12:00:29.255Z,54.30
2019-06-26T12:03:00.356Z,54.70
2019-06-26T12:05:31.708Z,54.70
2019-06-26T12:08:03.162Z,54.70
2019-06-26T12:10:34.315Z,55.10
2019-06-26T12:13:05.287Z,55.10
2019-06-26T12:15:36.381Z,55.30
2019-06-26T12:18:07.485Z,55.40
2019-06-26T12:20:38.738Z,54.60
2019-06-26T12:23:09.854Z,54.80
2019-06-26T12:25:41.597Z,55.10
2019-06-26T12:28:13.127Z,55.10
2019-06-26T12:30:44.596Z,55.50
2019-06-26T12:33:15.939Z,55.60
2019-06-26T12:35:47.163Z,55.10
2019-06-26T12:38:18.236Z,55.70
2019-06-26T12:40:49.297Z,55.70
2019-06-26T12:43:20.473Z,56.00
2019-06-26T12:45:51.571Z,56.00
2019-06-26T12:48:22.784Z,55.80
2019-06-26T12:50:54.094Z,56.40
2019-06-26T12:53:28.187Z,56.60
2019-06-26T12:55:59.269Z,56.50
2019-06-26T12:58:30.330Z,56.40
2019-06-26T13:01:01.769Z,56.60
2019-06-26T13:03:33.323Z,56.50
2019-06-26T13:06:04.483Z,56.50
2019-06-26T13:08:35.789Z,56.40
2019-06-26T13:11:07.101Z,56.00
2019-06-26T13:13:38.234Z,56.50
2019-06-26T13:16:09.423Z,56.50
2019-06-26T13:18:40.507Z,56.60
2019-06-26T13:21:11.702Z,56.30
2019-06-26T13:23:42.964Z,57.50
2019-06-26T13:26:14.004Z,56.80
2019-06-26T13:28:45.136Z,57.20
2019-06-26T13:31:16.345Z,57.20
2019-06-26T13:33:47.477Z,57.00
2019-06-26T13:36:18.418Z,57.30
2019-06-26T13:38:50.860Z,56.50
2019-06-26T13:41:22.116Z,57.00
2019-06-26T13:43:55.130Z,56.70
2019-06-26T13:46:25.741Z,56.30
2019-06-26T13:48:56.908Z,57.00
2019-06-26T13:51:28.388Z,57.10
2019-06-26T13:53:59.263Z,57.00
2019-06-26T13:56:30.463Z,57.60
2019-06-26T13:59:01.513Z,57.00
2019-06-26T14:01:32.573Z,57.40
2019-06-26T14:04:03.685Z,57.60
2019-06-26T14:06:35.263Z,58.10
2019-06-26T14:09:07.965Z,58.00
2019-06-26T14:11:39.027Z,58.50
2019-06-26T14:14:10.231Z,58.20
2019-06-26T14:16:41.309Z,57.60
2019-06-26T14:19:12.922Z,58.20
2019-06-26T14:21:44.020Z,58.10
2019-06-26T14:24:15.210Z,58.10
2019-06-26T14:26:46.269Z,58.30
2019-06-26T14:29:21.213Z,58.50
2019-06-26T14:31:50.196Z,58.60
2019-06-26T14:34:21.315Z,58.50
2019-06-26T14:36:52.195Z,58.50
2019-06-26T14:39:23.304Z,58.40
2019-06-26T14:41:56.625Z,58.60
2019-06-26T14:44:27.570Z,58.10
2019-06-26T14:46:58.539Z,58.70
2019-06-26T14:49:29.538Z,58.60
2019-06-26T14:52:00.620Z,58.80
2019-06-26T14:54:32.037Z,58.90
2019-06-26T14:57:03.511Z,58.20
2019-06-26T14:59:34.868Z,58.80
2019-06-26T15:02:06.296Z,59.00
2019-06-26T15:04:37.401Z,59.00
2019-06-26T15:07:08.450Z,59.20
2019-06-26T15:09:39.586Z,58.80
2019-06-26T15:12:10.681Z,59.60
2019-06-26T15:14:41.793Z,59.30
2019-06-26T15:17:12.750Z,59.30
2019-06-26T15:19:43.729Z,59.40
2019-06-26T15:22:14.593Z,59.30
2019-06-26T15:24:45.600Z,59.30
2019-06-26T15:27:16.637Z,59.50
2019-06-26T15:29:48.014Z,59.50
2019-06-26T15:32:19.194Z,59.50
2019-06-26T15:34:50.718Z,59.50
2019-06-26T15:37:21.993Z,59.80
2019-06-26T15:39:52.959Z,60.00
2019-06-26T15:42:24.962Z,60.10
2019-06-26T15:44:57.557Z,60.10
2019-06-26T15:47:29.122Z,60.00
2019-06-26T15:50:00.417Z,59.90
2019-06-26T15:52:31.630Z,60.20
2019-06-26T15:55:03.022Z,60.40
2019-06-26T15:57:34.491Z,60.70
2019-06-26T16:00:07.168Z,60.70
2019-06-26T16:02:39.560Z,61.00
2019-06-26T16:05:10.795Z,61.50
2019-06-26T16:07:41.964Z,61.10
2019-06-26T16:10:13.177Z,61.40
2019-06-26T16:12:44.458Z,61.20
2019-06-26T16:15:15.518Z,62.10
2019-06-26T16:17:47.937Z,61.90
2019-06-26T16:20:19.030Z,62.10
2019-06-26T16:22:50.167Z,61.70
2019-06-26T16:25:21.349Z,61.60
2019-06-26T16:28:04.771Z,61.90
2019-06-26T16:30:25.742Z,62.20
2019-06-26T16:32:57.071Z,62.20
2019-06-26T16:35:28.114Z,61.90
2019-06-26T16:37:59.407Z,62.90
2019-06-26T16:40:33.249Z,62.10
2019-06-26T16:43:03.308Z,62.60
2019-06-26T16:45:35.195Z,61.90
2019-06-26T16:48:06.573Z,62.00
2019-06-26T16:50:37.749Z,62.20
2019-06-26T16:53:09.681Z,62.90
2019-06-26T16:55:40.885Z,63.40
2019-06-26T16:58:12.013Z,62.40
2019-06-26T17:00:43.112Z,61.90
2019-06-26T17:03:14.031Z,62.60
2019-06-26T17:05:45.299Z,61.90
2019-06-26T17:08:16.390Z,62.90
2019-06-26T17:10:47.555Z,62.90
2019-06-26T17:13:18.528Z,62.60
2019-06-26T17:18:19.840Z,62.60
2019-06-26T17:20:51.131Z,62.60
2019-06-26T17:23:22.246Z,62.60
2019-06-26T17:25:53.568Z,63.90
2019-06-26T17:28:24.767Z,63.20
2019-06-26T17:30:55.922Z,63.30
2019-06-26T17:33:29.590Z,63.50
2019-06-26T17:36:00.764Z,64.30
2019-06-26T17:38:31.946Z,62.90
2019-06-26T17:41:03.225Z,63.90
2019-06-26T17:43:34.496Z,64.10
2019-06-26T17:46:05.626Z,64.70
2019-06-26T17:48:39.461Z,64.80
2019-06-26T17:51:09.365Z,64.70
2019-06-26T17:53:40.356Z,63.90
2019-06-26T17:56:11.407Z,64.20
2019-06-26T17:58:42.566Z,64.00
2019-06-26T18:01:14.202Z,63.80
2019-06-26T18:03:45.369Z,63.70
2019-06-26T18:06:16.476Z,63.80
2019-06-26T18:08:47.970Z,64.00
2019-06-26T18:11:19.062Z,64.20
2019-06-26T18:13:50.091Z,64.30
2019-06-26T18:16:20.944Z,63.80
2019-06-26T18:18:52.316Z,64.50
2019-06-26T18:21:23.591Z,65.10
2019-06-26T18:23:54.683Z,65.30
2019-06-26T18:26:25.543Z,65.40
2019-06-26T18:28:56.957Z,65.40
2019-06-26T18:31:30.599Z,66.30
2019-06-26T18:34:00.459Z,65.70
2019-06-26T18:36:33.631Z,66.30
2019-06-26T18:39:04.279Z,66.30
2019-06-26T18:41:35.318Z,67.00
2019-06-26T18:44:06.890Z,66.70
2019-06-26T18:46:38.010Z,66.70
2019-06-26T18:49:09.100Z,67.10
2019-06-26T18:51:39.964Z,67.30
2019-06-26T18:54:10.955Z,67.40
2019-06-26T18:56:41.942Z,67.50
2019-06-26T18:59:12.790Z,68.10
2019-06-26T19:01:43.878Z,67.70
2019-06-26T19:04:15.188Z,68.10
2019-06-26T19:06:46.293Z,68.00
2019-06-26T19:09:18.469Z,67.50
2019-06-26T19:14:33.630Z,67.40
2019-06-26T19:19:35.237Z,68.70
2019-06-26T19:22:06.297Z,68.50
2019-06-26T19:30:18.228Z,67.90
2019-06-26T19:32:49.102Z,68.90
2019-06-26T19:35:20.470Z,69.00
2019-06-26T19:37:51.668Z,69.70
2019-06-26T19:40:24.125Z,69.20
2019-06-26T19:42:55.070Z,70.60
2019-06-26T19:45:26.212Z,71.20
2019-06-26T19:47:57.450Z,71.80
2019-06-26T19:50:29.451Z,72.30
2019-06-26T19:53:00.545Z,72.30
2019-06-26T19:55:31.502Z,72.10
2019-06-26T19:58:02.589Z,72.60
2019-06-26T20:00:34.105Z,72.30
2019-06-26T20:03:05.147Z,72.30
2019-06-26T20:05:36.207Z,71.50
2019-06-26T20:08:07.389Z,72.00
2019-06-26T20:10:38.565Z,72.10
2019-06-26T20:13:09.650Z,71.10
2019-06-26T20:15:40.884Z,73.00
2019-06-26T20:18:12.047Z,71.90
2019-06-26T20:20:42.984Z,71.80
2019-06-26T20:23:14.264Z,71.40
2019-06-26T20:25:45.311Z,71.60
2019-06-26T20:28:16.413Z,72.00
2019-06-26T20:30:47.552Z,71.80
2019-06-26T20:33:18.722Z,72.90
2019-06-26T20:35:49.944Z,72.80
2019-06-26T20:38:21.032Z,73.60
2019-06-26T20:40:52.212Z,73.80
2019-06-26T20:43:23.437Z,72.80
2019-06-26T20:45:54.563Z,73.40
2019-06-26T20:48:25.509Z,74.20
2019-06-26T20:50:56.589Z,74.50
2019-06-26T20:53:28.083Z,75.40
2019-06-26T20:55:59.316Z,75.50
2019-06-26T20:58:30.911Z,76.00
2019-06-26T21:01:02.018Z,76.30
2019-06-26T21:03:33.225Z,76.90
2019-06-26T21:06:04.544Z,77.30
2019-06-26T21:08:35.528Z,77.80
2019-06-26T21:11:06.613Z,77.90
2019-06-26T21:13:38.893Z,77.30
2019-06-26T21:16:10.012Z,76.90
2019-06-26T21:18:41.337Z,78.70
2019-06-26T21:21:12.532Z,78.10
2019-06-26T21:23:43.632Z,78.10
2019-06-26T21:26:14.469Z,78.50
2019-06-26T21:28:45.759Z,78.70
2019-06-26T21:31:17.008Z,78.80
2019-06-26T21:33:48.178Z,79.40
2019-06-26T21:36:19.272Z,79.60
2019-06-26T21:38:50.346Z,79.80
2019-06-26T21:41:21.327Z,79.90
2019-06-26T21:43:52.526Z,80.00
2019-06-26T21:46:23.682Z,79.50
2019-06-26T21:48:54.532Z,79.80
2019-06-26T21:51:25.767Z,79.50
2019-06-26T21:53:56.889Z,78.50
2019-06-26T21:56:27.912Z,79.80
2019-06-26T21:58:58.977Z,80.40
2019-06-26T22:01:30.274Z,79.70
2019-06-26T22:04:01.418Z,79.90
2019-06-26T22:06:32.533Z,80.00
2019-06-26T22:09:03.804Z,79.70
2019-06-26T22:11:34.996Z,80.10
2019-06-26T22:14:06.142Z,80.00
2019-06-26T22:16:37.202Z,80.10
2019-06-26T22:19:08.264Z,80.20
2019-06-26T22:21:39.436Z,80.10
2019-06-26T22:24:10.326Z,80.10
2019-06-26T22:26:41.699Z,80.10
2019-06-26T22:29:12.769Z,80.20
2019-06-26T22:31:43.853Z,79.90
2019-06-26T22:34:15.085Z,80.20
2019-06-26T22:36:51.904Z,80.30
2019-06-26T22:39:18.545Z,79.50
2019-06-26T22:41:49.449Z,79.80
2019-06-26T22:44:20.522Z,80.10
2019-06-26T22:46:51.707Z,80.30
2019-06-26T22:49:22.808Z,80.00
2019-06-26T22:51:53.952Z,79.20
2019-06-26T22:54:25.051Z,80.00
2019-06-26T22:56:57.455Z,79.80
2019-06-26T22:59:28.593Z,80.50
2019-06-26T23:01:59.628Z,80.20
2019-06-26T23:04:30.497Z,80.70
2019-06-26T23:07:01.695Z,81.10
2019-06-26T23:09:32.546Z,80.70
2019-06-26T23:12:03.606Z,80.50
2019-06-26T23:14:34.503Z,80.60
2019-06-26T23:17:05.466Z,80.40
2019-06-26T23:19:36.342Z,80.80
2019-06-26T23:22:07.399Z,80.00
2019-06-26T23:24:38.359Z,80.10
2019-06-26T23:27:09.426Z,79.60
2019-06-26T23:29:40.378Z,80.40
2019-06-26T23:32:11.483Z,80.90
2019-06-26T23:34:42.536Z,80.50
2019-06-26T23:37:13.515Z,81.20
2019-06-26T23:39:45.170Z,81.20
2019-06-26T23:42:16.427Z,81.30
2019-06-26T23:44:47.688Z,81.70
2019-06-26T23:47:18.772Z,81.80
2019-06-26T23:49:50.053Z,81.70
2019-06-26T23:52:21.335Z,81.90
2019-06-26T23:54:52.396Z,82.00
2019-06-26T23:57:24.940Z,82.10
2019-06-26T23:59:56.054Z,81.50
